Zim Chicago — A8SI9 — position and weather

sailwx.info

Track history (hours):
 
Tides and Currents Weather Stations Pressure Air Temp Water Temp Dewpoint Dewpoint Depression Visibility Wind Speed Wind Dir Waves Ship Positions

Zim Chicago

Last reported at 2014-Jul-22 19:09 UTC. Time now 2014-Jul-29 02:39 UTC.
Position N 01°17' E 104°14'.

Length 334 m; draft 11.4 m.

Type: Cargo ship. MMSI: 636014223.

Date/timePositionNaut miles runAvg speedWind from/ knotsBaromVisibWave heightAir tempDewpointWater temp
2014-Jul-22 19:09N 01°17' E 104°14'1017.3
2014-Jul-22 18:33N 01°15' E 104°04'1313.0
2014-Jul-22 17:34N 01°15' E 103°51'1 0.6
2014-Jul-22 16:31N 01°16' E 103°51'0 0.1
2014-Jul-22 15:25N 01°16' E 103°51'0 0.1
2014-Jul-22 14:31N 01°16' E 103°51'0 0.1
2014-Jul-22 13:31N 01°16' E 103°51'0 0.0
2014-Jul-22 12:31N 01°16' E 103°51'0 0.0
2014-Jul-22 11:31N 01°16' E 103°51'0 0.0
2014-Jul-22 10:31N 01°16' E 103°51'0 0.0
2014-Jul-22 09:31N 01°16' E 103°51'0 0.0
2014-Jul-22 08:31N 01°16' E 103°51'0 0.0
2014-Jul-22 07:31N 01°16' E 103°51'0 0.0
2014-Jul-22 06:31N 01°16' E 103°51'0 0.0
2014-Jul-22 05:31N 01°16' E 103°51'0 0.0
2014-Jul-22 04:31N 01°16' E 103°51'0 0.0
2014-Jul-22 03:31N 01°16' E 103°51'0 0.0
2014-Jul-22 02:31N 01°16' E 103°51'0 0.1
2014-Jul-22 01:28N 01°16' E 103°51'0 0.1
2014-Jul-22 00:31N 01°16' E 103°51'0 0.0
2014-Jul-21 23:31N 01°16' E 103°51'0 0.0
2014-Jul-21 22:31N 01°16' E 103°51'0 0.1
2014-Jul-21 21:31N 01°16' E 103°51'0 0.1
2014-Jul-21 20:31N 01°16' E 103°51'0 0.0
2014-Jul-21 20:16N 01°16' E 103°51'0 0.0
2014-Jul-21 19:31N 01°16' E 103°51'0 0.0
2014-Jul-21 18:31N 01°16' E 103°51'0 0.0
2014-Jul-21 17:31N 01°16' E 103°51'0 0.1
2014-Jul-21 16:31N 01°16' E 103°51'0 0.1
2014-Jul-21 15:31N 01°16' E 103°51'0 0.0
2014-Jul-21 14:31N 01°16' E 103°51'0 0.0
2014-Jul-21 13:31N 01°16' E 103°51'0 0.0
2014-Jul-21 12:31N 01°16' E 103°51'0 0.1
2014-Jul-21 11:33N 01°16' E 103°51'3 3.2
2014-Jul-21 10:31N 01°12' E 103°51'6 5.8
2014-Jul-21 09:34N 01°16' E 103°47'0 0.0
2014-Jul-21 08:30N 01°16' E 103°47'0 0.0
2014-Jul-21 07:33N 01°16' E 103°47'0 0.0
2014-Jul-21 06:27N 01°16' E 103°47'0 0.0
2014-Jul-21 05:33N 01°16' E 103°47'0 0.0
2014-Jul-21 04:33N 01°16' E 103°47'0 0.0
2014-Jul-21 03:30N 01°16' E 103°47'0 0.0
2014-Jul-21 02:33N 01°16' E 103°47'0 0.0
2014-Jul-21 01:33N 01°16' E 103°47'0 0.0
2014-Jul-21 00:34N 01°16' E 103°47'3 2.8
2014-Jul-20 23:33N 01°13' E 103°48'9 9.1
2014-Jul-20 22:33N 01°15' E 103°57'8 8.0
2014-Jul-20 21:33N 01°17' E 104°04'  
2014-Jul-17 09:11N 21°50' E 120°05'1218.8
2014-Jul-17 08:33N 22°02' E 120°07'2221.6
2014-Jul-17 07:32N 22°23' E 120°10'1313.2
2014-Jul-17 06:33N 22°33' E 120°19'1 1.0
2014-Jul-17 05:23N 22°34' E 120°19'0 0.0
2014-Jul-17 04:29N 22°34' E 120°19'0 0.0
2014-Jul-17 03:29N 22°34' E 120°19'0 0.0
2014-Jul-17 02:23N 22°34' E 120°19'0 0.0
2014-Jul-17 01:05N 22°34' E 120°19'0 0.0
2014-Jul-17 00:29N 22°34' E 120°19'0 0.0
2014-Jul-16 23:23N 22°34' E 120°19'0 0.0
2014-Jul-16 21:20N 22°34' E 120°19'0 0.0
2014-Jul-16 20:32N 22°34' E 120°19'0 0.0
2014-Jul-16 13:09N 22°34' E 120°19'9 0.7
2014-Jul-16 00:12N 22°35' E 120°09'1116.8
2014-Jul-15 23:33N 22°45' E 120°04'8517.1
2014-Jul-15 18:33N 24°10' E 120°12'1818.5
2014-Jul-15 17:33N 24°26' E 120°22'1818.1
2014-Jul-15 16:33N 24°42' E 120°31'1918.4
2014-Jul-15 15:33N 24°58' E 120°42'4118.8
2014-Jul-15 13:21N 25°33' E 121°06'  
2014-Jul-13 01:33N 35°04' E 129°28'  
Track history (hours):
 
Tides and Currents Weather Stations Pressure Air Temp Water Temp Dewpoint Dewpoint Depression Visibility Wind Speed Wind Dir Waves Ship Positions

Zim Chicago

Last reported at 2014-Jul-22 19:09 UTC. Time now 2014-Jul-29 02:39 UTC.
Position N 01°17' E 104°14'.

Length 334 m; draft 11.4 m.

Type: Cargo ship. MMSI: 636014223.

Date/timePositionNaut miles runAvg speedWind from/ knotsBaromVisibWave heightAir tempDewpointWater temp
2014-Jul-22 19:09N 01°17' E 104°14'1017.3
2014-Jul-22 18:33N 01°15' E 104°04'1313.0
2014-Jul-22 17:34N 01°15' E 103°51'1 0.6
2014-Jul-22 16:31N 01°16' E 103°51'0 0.1
2014-Jul-22 15:25N 01°16' E 103°51'0 0.1
2014-Jul-22 14:31N 01°16' E 103°51'0 0.1
2014-Jul-22 13:31N 01°16' E 103°51'0 0.0
2014-Jul-22 12:31N 01°16' E 103°51'0 0.0
2014-Jul-22 11:31N 01°16' E 103°51'0 0.0
2014-Jul-22 10:31N 01°16' E 103°51'0 0.0
2014-Jul-22 09:31N 01°16' E 103°51'0 0.0
2014-Jul-22 08:31N 01°16' E 103°51'0 0.0
2014-Jul-22 07:31N 01°16' E 103°51'0 0.0
2014-Jul-22 06:31N 01°16' E 103°51'0 0.0
2014-Jul-22 05:31N 01°16' E 103°51'0 0.0
2014-Jul-22 04:31N 01°16' E 103°51'0 0.0
2014-Jul-22 03:31N 01°16' E 103°51'0 0.0
2014-Jul-22 02:31N 01°16' E 103°51'0 0.1
2014-Jul-22 01:28N 01°16' E 103°51'0 0.1
2014-Jul-22 00:31N 01°16' E 103°51'0 0.0
2014-Jul-21 23:31N 01°16' E 103°51'0 0.0
2014-Jul-21 22:31N 01°16' E 103°51'0 0.1
2014-Jul-21 21:31N 01°16' E 103°51'0 0.1
2014-Jul-21 20:31N 01°16' E 103°51'0 0.0
2014-Jul-21 20:16N 01°16' E 103°51'0 0.0
2014-Jul-21 19:31N 01°16' E 103°51'0 0.0
2014-Jul-21 18:31N 01°16' E 103°51'0 0.0
2014-Jul-21 17:31N 01°16' E 103°51'0 0.1
2014-Jul-21 16:31N 01°16' E 103°51'0 0.1
2014-Jul-21 15:31N 01°16' E 103°51'0 0.0
2014-Jul-21 14:31N 01°16' E 103°51'0 0.0
2014-Jul-21 13:31N 01°16' E 103°51'0 0.0
2014-Jul-21 12:31N 01°16' E 103°51'0 0.1
2014-Jul-21 11:33N 01°16' E 103°51'3 3.2
2014-Jul-21 10:31N 01°12' E 103°51'6 5.8
2014-Jul-21 09:34N 01°16' E 103°47'0 0.0
2014-Jul-21 08:30N 01°16' E 103°47'0 0.0
2014-Jul-21 07:33N 01°16' E 103°47'0 0.0
2014-Jul-21 06:27N 01°16' E 103°47'0 0.0
2014-Jul-21 05:33N 01°16' E 103°47'0 0.0
2014-Jul-21 04:33N 01°16' E 103°47'0 0.0
2014-Jul-21 03:30N 01°16' E 103°47'0 0.0
2014-Jul-21 02:33N 01°16' E 103°47'0 0.0
2014-Jul-21 01:33N 01°16' E 103°47'0 0.0
2014-Jul-21 00:34N 01°16' E 103°47'3 2.8
2014-Jul-20 23:33N 01°13' E 103°48'9 9.1
2014-Jul-20 22:33N 01°15' E 103°57'8 8.0
2014-Jul-20 21:33N 01°17' E 104°04'  
2014-Jul-17 09:11N 21°50' E 120°05'1218.8
2014-Jul-17 08:33N 22°02' E 120°07'2221.6
2014-Jul-17 07:32N 22°23' E 120°10'1313.2
2014-Jul-17 06:33N 22°33' E 120°19'1 1.0
2014-Jul-17 05:23N 22°34' E 120°19'0 0.0
2014-Jul-17 04:29N 22°34' E 120°19'0 0.0
2014-Jul-17 03:29N 22°34' E 120°19'0 0.0
2014-Jul-17 02:23N 22°34' E 120°19'0 0.0
2014-Jul-17 01:05N 22°34' E 120°19'0 0.0
2014-Jul-17 00:29N 22°34' E 120°19'0 0.0
2014-Jul-16 23:23N 22°34' E 120°19'0 0.0
2014-Jul-16 21:20N 22°34' E 120°19'0 0.0
2014-Jul-16 20:32N 22°34' E 120°19'0 0.0
2014-Jul-16 13:09N 22°34' E 120°19'9 0.7
2014-Jul-16 00:12N 22°35' E 120°09'1116.8
2014-Jul-15 23:33N 22°45' E 120°04'8517.1
2014-Jul-15 18:33N 24°10' E 120°12'1818.5
2014-Jul-15 17:33N 24°26' E 120°22'1818.1
2014-Jul-15 16:33N 24°42' E 120°31'1918.4
2014-Jul-15 15:33N 24°58' E 120°42'4118.8
2014-Jul-15 13:21N 25°33' E 121°06'  
2014-Jul-13 01:33N 35°04' E 129°28'  

Dump ship's entire track history